Time;durP1;ratioP1;P1;durP2;ratioP2;P2;SDS_P1;SDS_P2;PMS_P1;PMS_P2;Temp;Humidity;BMP_temperature;BMP_pressure;BME280_temperature;BME280_humidity;BME280_pressure;Samples;Min_cycle;Max_cycle;Signal;HPM_P1;HPM_P2
2024/03/10 00:00:41;;;;;;;24.53;15.10;;;9.90;72.00;;;;;;5029380;28;20018;-75
2024/03/10 00:03:10;;;;;;;21.47;14.10;;;9.90;72.10;;;;;;5014048;28;20057;-75
2024/03/10 00:05:38;;;;;;;23.30;13.83;;;9.80;71.90;;;;;;5014219;28;20025;-76
2024/03/10 00:08:05;;;;;;;22.00;12.97;;;9.90;72.10;;;;;;5014423;28;20014;-76
2024/03/10 00:10:37;;;;;;;20.17;12.10;;;9.80;71.90;;;;;;5013080;28;20381;-76
2024/03/10 00:13:03;;;;;;;19.63;12.60;;;9.80;72.30;;;;;;5028678;28;20026;-76
2024/03/10 00:15:30;;;;;;;21.67;13.23;;;9.80;72.10;;;;;;5013775;28;20021;-76
2024/03/10 00:17:56;;;;;;;20.33;12.60;;;9.80;72.00;;;;;;5014066;28;20030;-75
2024/03/10 00:20:22;;;;;;;20.93;13.20;;;9.80;72.10;;;;;;5013856;28;20081;-76
2024/03/10 00:22:47;;;;;;;21.90;13.67;;;9.80;72.20;;;;;;5014106;28;20065;-76
2024/03/10 00:25:15;;;;;;;25.17;13.93;;;9.80;72.30;;;;;;5013748;28;20026;-76
2024/03/10 00:27:41;;;;;;;22.17;13.67;;;9.80;72.50;;;;;;5013690;28;20025;-76
2024/03/10 00:30:09;;;;;;;20.70;13.27;;;9.70;72.30;;;;;;5013720;28;20105;-76
2024/03/10 00:32:36;;;;;;;24.73;13.67;;;9.70;72.40;;;;;;5013561;28;20412;-76
2024/03/10 00:35:05;;;;;;;20.60;13.23;;;9.70;72.40;;;;;;5013761;28;20026;-76
2024/03/10 00:37:31;;;;;;;21.10;13.23;;;9.70;72.40;;;;;;5013959;28;20076;-75
2024/03/10 00:39:57;;;;;;;22.70;14.63;;;9.70;72.40;;;;;;5013180;28;20089;-76
2024/03/10 00:42:23;;;;;;;24.00;13.77;;;9.70;72.50;;;;;;5013476;28;20090;-76
2024/03/10 00:44:50;;;;;;;24.40;14.70;;;9.70;72.60;;;;;;5013644;28;20030;-76
2024/03/10 00:47:16;;;;;;;23.80;14.27;;;9.70;72.70;;;;;;5013435;28;20018;-76
2024/03/10 00:49:42;;;;;;;23.13;14.20;;;9.70;72.70;;;;;;5013199;28;20030;-76
2024/03/10 00:52:09;;;;;;;21.83;14.00;;;9.70;72.60;;;;;;5009810;28;20044;-76
2024/03/10 00:54:35;;;;;;;22.53;13.77;;;9.70;72.60;;;;;;5013308;28;20026;-76
2024/03/10 00:57:02;;;;;;;22.93;14.33;;;9.70;72.70;;;;;;5008953;28;20122;-76
2024/03/10 00:59:27;;;;;;;21.67;14.03;;;9.70;72.70;;;;;;4998138;28;20033;-76
2024/03/10 01:01:53;;;;;;;20.47;13.57;;;9.60;72.80;;;;;;4993769;28;20105;-76
2024/03/10 01:04:19;;;;;;;22.90;14.63;;;9.60;72.80;;;;;;4994088;28;20030;-76
2024/03/10 01:06:45;;;;;;;23.37;15.20;;;9.60;73.10;;;;;;4993274;28;20022;-76
2024/03/10 01:09:13;;;;;;;25.83;16.20;;;9.60;73.00;;;;;;4993469;28;20424;-75
2024/03/10 01:11:47;;;;;;;25.00;14.70;;;9.60;73.40;;;;;;4993599;28;20367;-76
2024/03/10 01:14:13;;;;;;;22.73;13.82;;;9.60;73.10;;;;;;4993598;28;20026;-76
2024/03/10 01:16:40;;;;;;;26.57;15.33;;;9.60;73.10;;;;;;4993485;28;20030;-76
2024/03/10 01:19:09;;;;;;;23.30;14.20;;;9.60;73.20;;;;;;4993364;28;20116;-75
2024/03/10 01:21:35;;;;;;;23.27;13.30;;;9.60;73.10;;;;;;4993139;28;20045;-75
2024/03/10 01:24:01;;;;;;;20.23;13.10;;;9.50;73.10;;;;;;4993420;28;20577;-75
2024/03/10 01:26:27;;;;;;;23.43;15.20;;;9.50;73.80;;;;;;4993498;28;20039;-75
2024/03/10 01:28:52;;;;;;;23.50;14.60;;;9.50;73.20;;;;;;4993579;28;20041;-75
2024/03/10 01:31:18;;;;;;;25.90;14.83;;;9.50;73.30;;;;;;4992965;28;20034;-75
2024/03/10 01:33:44;;;;;;;21.53;13.30;;;9.50;73.50;;;;;;4993463;28;20066;-76
2024/03/10 01:36:11;;;;;;;23.10;14.17;;;9.50;73.50;;;;;;4993257;28;20056;-75
2024/03/10 01:38:37;;;;;;;25.80;15.20;;;9.40;73.50;;;;;;4993088;28;20026;-75
2024/03/10 01:41:03;;;;;;;22.97;13.93;;;9.40;73.60;;;;;;4993744;28;20077;-75
2024/03/10 01:43:29;;;;;;;22.37;14.27;;;9.40;73.70;;;;;;4991719;28;20029;-75
2024/03/10 01:46:07;;;;;;;23.90;14.83;;;9.40;73.50;;;;;;4993300;28;20023;-75
2024/03/10 01:48:40;;;;;;;23.93;15.77;;;9.40;73.80;;;;;;4993246;28;20026;-75
2024/03/10 01:51:07;;;;;;;25.20;15.90;;;9.40;73.90;;;;;;4996284;28;20116;-76
2024/03/10 01:53:34;;;;;;;27.03;15.20;;;9.40;73.80;;;;;;4998737;28;20425;-75
2024/03/10 01:56:05;;;;;;;25.13;16.10;;;9.40;74.30;;;;;;5007884;28;20018;-75
2024/03/10 01:58:32;;;;;;;23.90;14.43;;;9.30;74.30;;;;;;4993088;28;20026;-77
2024/03/10 02:01:03;;;;;;;24.17;14.70;;;9.40;74.10;;;;;;4993104;28;20465;-76
2024/03/10 02:03:29;;;;;;;24.93;14.90;;;9.30;74.00;;;;;;5007796;28;20029;-75
2024/03/10 02:05:55;;;;;;;24.97;14.67;;;9.30;74.10;;;;;;4992761;28;20025;-77
2024/03/10 02:08:21;;;;;;;23.80;14.73;;;9.30;74.20;;;;;;4993013;28;20105;-77
2024/03/10 02:10:48;;;;;;;26.10;15.30;;;9.30;74.50;;;;;;4996726;28;20042;-76
2024/03/10 02:13:18;;;;;;;25.00;13.87;;;9.30;74.30;;;;;;4996703;28;20531;-76
2024/03/10 02:15:44;;;;;;;22.73;14.67;;;9.30;74.20;;;;;;4996335;28;20054;-76
2024/03/10 02:18:12;;;;;;;23.70;14.93;;;9.30;74.30;;;;;;4996508;28;20018;-75
2024/03/10 02:20:38;;;;;;;24.67;14.60;;;9.30;74.30;;;;;;4996298;28;20497;-76
2024/03/10 02:23:04;;;;;;;24.20;13.83;;;9.30;74.30;;;;;;4996678;28;20041;-76
2024/03/10 02:25:39;;;;;;;24.83;15.30;;;9.30;74.50;;;;;;4996447;28;20026;-76
2024/03/10 02:28:09;;;;;;;24.63;14.50;;;9.30;74.40;;;;;;4996411;28;20125;-76
2024/03/10 02:30:55;;;;;;;25.13;15.60;;;9.20;74.40;;;;;;4996172;28;20026;-76
2024/03/10 02:47:23;;;;;;;;;;;9.20;75.20;;;;;;4995563;28;20076;-75
2024/03/10 02:49:48;;;;;;;28.50;17.17;;;9.20;75.80;;;;;;5000610;28;19949;-75
2024/03/10 02:52:14;;;;;;;25.77;15.77;;;9.20;75.50;;;;;;4996064;28;20401;-76
2024/03/10 02:54:40;;;;;;;26.37;16.63;;;9.20;75.30;;;;;;4995959;28;20026;-76
2024/03/10 02:57:07;;;;;;;28.87;17.70;;;9.10;75.30;;;;;;5011119;28;20025;-76
2024/03/10 02:59:32;;;;;;;26.77;16.67;;;9.10;75.30;;;;;;4995954;28;20152;-76
2024/03/10 03:01:58;;;;;;;25.20;15.97;;;9.10;75.30;;;;;;4994259;28;20113;-76
2024/03/10 03:04:28;;;;;;;26.73;16.10;;;9.10;75.40;;;;;;4995411;28;20030;-75
2024/03/10 03:06:54;;;;;;;25.37;15.90;;;9.10;75.50;;;;;;4995904;28;20026;-76
2024/03/10 03:09:20;;;;;;;24.53;15.53;;;9.10;75.30;;;;;;4995862;28;20470;-76
2024/03/10 03:11:49;;;;;;;25.47;15.83;;;9.10;75.40;;;;;;4995719;28;20034;-76
2024/03/10 03:14:15;;;;;;;23.13;14.70;;;9.10;75.40;;;;;;4994440;28;20023;-75
2024/03/10 03:16:44;;;;;;;31.27;17.23;;;9.10;75.50;;;;;;4995302;28;20033;-76
2024/03/10 03:19:13;;;;;;;26.20;16.10;;;9.10;75.80;;;;;;4994999;28;20108;-76
2024/03/10 03:21:43;;;;;;;28.83;16.90;;;9.10;75.50;;;;;;4994978;28;20054;-76
2024/03/10 03:24:09;;;;;;;27.87;17.03;;;9.00;75.50;;;;;;4995259;28;20438;-76
2024/03/10 03:26:38;;;;;;;26.73;16.30;;;9.00;75.70;;;;;;5010517;28;20022;-76
2024/03/10 03:29:04;;;;;;;24.93;16.47;;;9.10;75.70;;;;;;4995135;28;20026;-76
2024/03/10 03:31:31;;;;;;;27.33;17.43;;;9.00;75.60;;;;;;4995174;28;20030;-76
2024/03/10 03:33:57;;;;;;;23.83;15.30;;;9.00;75.90;;;;;;4995127;28;20038;-76
2024/03/10 03:36:22;;;;;;;24.93;15.47;;;9.00;75.60;;;;;;4995300;28;20033;-76
2024/03/10 03:38:48;;;;;;;24.60;15.77;;;9.00;75.50;;;;;;4995039;28;20113;-76
2024/03/10 03:41:14;;;;;;;27.80;15.80;;;9.00;75.60;;;;;;4995241;28;20027;-76
2024/03/10 03:43:39;;;;;;;26.73;15.77;;;8.90;75.80;;;;;;4995060;28;20096;-76
2024/03/10 03:46:05;;;;;;;26.50;16.47;;;8.90;75.60;;;;;;4994778;28;20029;-75
2024/03/10 03:48:31;;;;;;;23.10;14.77;;;8.90;75.60;;;;;;4994603;28;20022;-76
2024/03/10 03:50:57;;;;;;;23.30;14.73;;;8.90;75.70;;;;;;4994771;28;20038;-76
2024/03/10 03:53:23;;;;;;;27.00;16.27;;;8.90;75.60;;;;;;4994733;28;20034;-76
2024/03/10 03:55:48;;;;;;;22.90;14.50;;;8.90;75.60;;;;;;5009835;28;20029;-76
2024/03/10 03:58:14;;;;;;;27.00;16.97;;;8.90;75.70;;;;;;5009643;28;20113;-76
2024/03/10 04:00:40;;;;;;;27.00;16.17;;;8.90;76.00;;;;;;4994531;28;20034;-76
2024/03/10 04:03:06;;;;;;;27.07;16.93;;;8.80;75.70;;;;;;4994756;28;20034;-76
2024/03/10 04:05:32;;;;;;;26.00;16.30;;;8.80;76.00;;;;;;4994733;28;20035;-76
2024/03/10 04:07:58;;;;;;;25.97;15.37;;;8.80;75.70;;;;;;4994381;28;20037;-76
2024/03/10 04:10:24;;;;;;;26.90;16.27;;;8.80;75.70;;;;;;5009469;28;20507;-76
2024/03/10 04:12:50;;;;;;;26.50;15.37;;;8.80;75.70;;;;;;4994019;28;20034;-76
2024/03/10 04:15:15;;;;;;;25.83;15.77;;;8.70;75.80;;;;;;4994212;28;20018;-76
2024/03/10 04:17:43;;;;;;;24.77;15.23;;;8.70;76.00;;;;;;4994571;28;20109;-75
2024/03/10 04:20:12;;;;;;;25.67;15.03;;;8.70;75.90;;;;;;4994315;28;20383;-75
2024/03/10 04:22:39;;;;;;;25.43;16.57;;;8.60;76.00;;;;;;4994471;28;20023;-75
2024/03/10 04:25:08;;;;;;;30.47;17.83;;;8.60;76.20;;;;;;4994282;28;20015;-75
2024/03/10 04:27:35;;;;;;;24.17;15.27;;;8.60;76.60;;;;;;4994118;28;20022;-76
2024/03/10 04:30:04;;;;;;;29.33;17.83;;;8.50;76.30;;;;;;4994218;28;20026;-75
2024/03/10 04:32:30;;;;;;;27.37;16.40;;;8.50;76.70;;;;;;4993217;28;20039;-75
2024/03/10 04:34:56;;;;;;;26.17;16.23;;;8.50;76.70;;;;;;4994258;28;20112;-76
2024/03/10 04:37:23;;;;;;;28.17;16.70;;;8.50;76.70;;;;;;4993950;28;20034;-75
2024/03/10 04:39:48;;;;;;;29.30;16.20;;;8.40;76.70;;;;;;4993570;28;20026;-74
2024/03/10 04:42:15;;;;;;;27.63;16.23;;;8.40;76.70;;;;;;4993860;28;20030;-74
2024/03/10 04:44:41;;;;;;;27.53;16.93;;;8.30;76.90;;;;;;4994188;28;20022;-76
2024/03/10 04:47:07;;;;;;;30.17;18.30;;;8.40;77.60;;;;;;4993993;28;20037;-76
2024/03/10 04:49:33;;;;;;;27.67;17.07;;;8.30;77.20;;;;;;4994062;28;20022;-76
2024/03/10 04:52:02;;;;;;;26.73;15.97;;;8.30;77.20;;;;;;4993765;28;20041;-76
2024/03/10 04:54:29;;;;;;;25.03;15.97;;;8.30;77.50;;;;;;4993580;28;20038;-76
2024/03/10 04:56:54;;;;;;;28.60;17.20;;;8.20;77.70;;;;;;4996148;28;20378;-76
2024/03/10 04:59:20;;;;;;;30.67;18.47;;;8.20;77.60;;;;;;5000858;28;20081;-76
2024/03/10 05:01:46;;;;;;;27.90;17.30;;;8.20;77.70;;;;;;4999003;28;20396;-76
2024/03/10 05:04:14;;;;;;;30.03;18.97;;;8.20;77.80;;;;;;4996757;28;20022;-76
2024/03/10 05:06:41;;;;;;;29.53;18.63;;;8.20;78.10;;;;;;5012641;28;20346;-76
2024/03/10 05:09:07;;;;;;;30.53;16.93;;;8.20;78.40;;;;;;5013213;28;20104;-75
2024/03/10 05:11:32;;;;;;;27.87;17.03;;;8.20;78.20;;;;;;5013083;28;20118;-76
2024/03/10 05:13:58;;;;;;;28.33;17.43;;;8.20;78.30;;;;;;5012890;28;20026;-75
2024/03/10 05:16:25;;;;;;;28.47;18.03;;;8.10;78.30;;;;;;5011652;28;20033;-75
2024/03/10 05:18:50;;;;;;;29.27;17.37;;;8.20;78.30;;;;;;5012878;28;20581;-75
2024/03/10 05:21:16;;;;;;;27.17;17.63;;;8.20;78.10;;;;;;5011843;28;20097;-75
2024/03/10 05:23:41;;;;;;;25.03;15.90;;;8.10;78.10;;;;;;5013463;28;20385;-76
2024/03/10 05:26:07;;;;;;;26.57;15.83;;;8.10;78.00;;;;;;5012807;28;20101;-76
2024/03/10 05:28:33;;;;;;;28.73;17.40;;;8.10;78.10;;;;;;5013256;28;20033;-76
2024/03/10 05:30:58;;;;;;;26.10;16.30;;;8.10;78.30;;;;;;5012516;28;20029;-76
2024/03/10 05:33:24;;;;;;;27.90;16.30;;;8.10;78.20;;;;;;5028023;28;20045;-76
2024/03/10 05:35:50;;;;;;;27.93;16.83;;;8.10;78.10;;;;;;5027955;28;20469;-75
2024/03/10 05:38:16;;;;;;;32.00;18.53;;;8.10;78.20;;;;;;5012906;28;20030;-76
2024/03/10 05:40:42;;;;;;;29.80;18.20;;;8.10;78.20;;;;;;5012979;28;20512;-76
2024/03/10 05:43:08;;;;;;;29.73;18.10;;;8.10;78.20;;;;;;5013887;28;20049;-76
2024/03/10 05:45:34;;;;;;;26.77;15.87;;;8.10;78.20;;;;;;5016953;28;20026;-76
2024/03/10 05:48:00;;;;;;;25.77;16.70;;;8.10;78.40;;;;;;5016732;28;20767;-75
2024/03/10 05:50:25;;;;;;;27.97;16.40;;;8.10;78.40;;;;;;5016834;28;20030;-76
2024/03/10 05:52:52;;;;;;;32.00;18.73;;;8.10;78.20;;;;;;5016873;28;20037;-76
2024/03/10 05:55:18;;;;;;;28.97;17.23;;;8.10;78.90;;;;;;5016787;28;20069;-76
2024/03/10 05:57:45;;;;;;;27.10;16.87;;;8.10;78.40;;;;;;5016414;28;20034;-76
2024/03/10 06:00:14;;;;;;;27.30;17.30;;;8.10;78.30;;;;;;5016771;28;20366;-76
2024/03/10 06:02:44;;;;;;;28.80;17.33;;;8.10;78.30;;;;;;5036961;28;20100;-76
2024/03/10 06:05:12;;;;;;;28.57;16.73;;;8.10;78.30;;;;;;5024752;28;20026;-75
2024/03/10 06:07:38;;;;;;;28.37;16.37;;;8.10;78.30;;;;;;5016341;28;20026;-76
2024/03/10 06:10:06;;;;;;;32.13;17.97;;;8.10;78.20;;;;;;5016461;28;20551;-75
2024/03/10 06:12:32;;;;;;;28.90;16.97;;;8.10;78.40;;;;;;5016097;28;20030;-76
2024/03/10 06:14:59;;;;;;;31.30;17.97;;;8.00;78.70;;;;;;5016657;28;20030;-76
2024/03/10 06:17:31;;;;;;;29.47;18.27;;;8.00;78.40;;;;;;5021056;28;20025;-76
2024/03/10 06:25:29;;;;;;;29.92;17.92;;;7.90;78.70;;;;;;5012916;28;20056;-76
2024/03/10 06:27:56;;;;;;;28.77;17.83;;;7.90;79.00;;;;;;5029923;28;20390;-76
2024/03/10 06:30:22;;;;;;;30.03;16.73;;;7.90;79.10;;;;;;5029301;28;20464;-76
2024/03/10 06:32:51;;;;;;;29.30;17.90;;;7.90;79.00;;;;;;5028722;28;20053;-75
2024/03/10 06:35:17;;;;;;;32.80;20.20;;;8.00;79.10;;;;;;5025125;28;20022;-75
2024/03/10 06:37:46;;;;;;;30.07;18.80;;;7.90;79.20;;;;;;5023153;28;20057;-75
2024/03/10 06:40:12;;;;;;;31.13;17.47;;;7.90;78.90;;;;;;5024528;28;20021;-75
2024/03/10 06:42:37;;;;;;;25.23;15.47;;;7.90;79.00;;;;;;5025993;28;20532;-75
2024/03/10 06:45:08;;;;;;;27.50;16.40;;;7.90;79.20;;;;;;5024426;28;20397;-76
2024/03/10 06:47:34;;;;;;;30.63;18.10;;;8.00;79.10;;;;;;5024297;28;20017;-76
2024/03/10 06:50:04;;;;;;;28.33;16.00;;;8.00;79.30;;;;;;5024822;28;20029;-76
2024/03/10 06:52:30;;;;;;;28.93;17.57;;;8.00;79.20;;;;;;5023204;28;20026;-77
2024/03/10 06:54:57;;;;;;;26.10;16.07;;;8.00;79.20;;;;;;5014536;28;20125;-77
2024/03/10 06:57:23;;;;;;;25.57;15.97;;;8.10;79.30;;;;;;5014861;28;20037;-77
2024/03/10 06:59:48;;;;;;;29.43;17.50;;;8.10;79.30;;;;;;5017410;28;20030;-77
2024/03/10 07:02:15;;;;;;;26.80;16.47;;;8.10;79.30;;;;;;5030776;28;20465;-76
2024/03/10 07:04:45;;;;;;;29.03;17.20;;;8.10;79.10;;;;;;5019115;28;20025;-76
2024/03/10 07:07:11;;;;;;;28.37;16.37;;;8.20;79.20;;;;;;5024657;28;20013;-76
2024/03/10 07:09:36;;;;;;;24.57;15.70;;;8.20;79.00;;;;;;5023022;28;20029;-77
2024/03/10 07:12:04;;;;;;;29.43;18.53;;;8.20;79.00;;;;;;5025308;28;20061;-76
2024/03/10 07:14:29;;;;;;;30.10;18.13;;;8.30;79.10;;;;;;5026741;28;20013;-76
2024/03/10 07:16:55;;;;;;;25.87;16.43;;;8.30;79.00;;;;;;5015264;28;20374;-76
2024/03/10 07:19:21;;;;;;;27.30;15.47;;;8.30;78.80;;;;;;5014987;28;20100;-76
2024/03/10 07:21:47;;;;;;;25.30;15.40;;;8.40;78.80;;;;;;5014791;28;20037;-76
2024/03/10 07:24:12;;;;;;;25.73;16.07;;;8.40;78.70;;;;;;5014704;28;20066;-76
2024/03/10 07:26:38;;;;;;;28.83;16.30;;;8.40;78.70;;;;;;5014051;28;20378;-76
2024/03/10 07:29:04;;;;;;;24.97;15.90;;;8.40;78.50;;;;;;5006065;28;20714;-75
2024/03/10 07:31:29;;;;;;;25.10;15.13;;;8.50;78.50;;;;;;5012392;28;20099;-75
2024/03/10 07:33:56;;;;;;;25.30;15.07;;;8.50;78.50;;;;;;5029842;28;20022;-76
2024/03/10 07:36:26;;;;;;;23.30;14.40;;;8.50;78.50;;;;;;5014430;28;20046;-75
2024/03/10 07:38:53;;;;;;;26.77;15.97;;;8.60;78.60;;;;;;5014289;28;20018;-76
2024/03/10 07:41:19;;;;;;;27.63;16.60;;;8.60;78.60;;;;;;5014552;28;20440;-75
2024/03/10 07:43:45;;;;;;;23.90;14.23;;;8.60;78.60;;;;;;5014397;28;20018;-77
2024/03/10 07:46:10;;;;;;;25.60;14.83;;;8.70;78.60;;;;;;5014377;28;20030;-75
2024/03/10 07:48:36;;;;;;;22.60;14.00;;;8.80;78.50;;;;;;5014853;28;20079;-75
2024/03/10 07:51:05;;;;;;;24.07;14.00;;;8.90;78.50;;;;;;5014498;28;20140;-75
2024/03/10 07:53:31;;;;;;;26.20;15.53;;;8.90;78.50;;;;;;5031919;28;20025;-75
2024/03/10 07:56:00;;;;;;;25.30;15.07;;;9.00;78.40;;;;;;5022333;28;20030;-75
2024/03/10 07:58:26;;;;;;;24.40;14.67;;;9.00;78.20;;;;;;5022888;28;20013;-75
2024/03/10 08:00:52;;;;;;;21.83;13.77;;;9.10;78.20;;;;;;5022249;28;20026;-75
2024/03/10 08:03:19;;;;;;;22.67;14.50;;;9.20;78.70;;;;;;5024263;28;20530;-75
2024/03/10 08:05:44;;;;;;;22.37;14.37;;;9.30;78.10;;;;;;5023890;28;20474;-77
2024/03/10 08:08:10;;;;;;;22.60;13.93;;;9.30;78.60;;;;;;5022343;28;20053;-76
2024/03/10 08:10:36;;;;;;;24.43;14.43;;;9.40;78.00;;;;;;5019114;28;20026;-74
2024/03/10 08:13:02;;;;;;;23.60;15.33;;;9.50;77.90;;;;;;5013945;28;20484;-75
2024/03/10 08:15:28;;;;;;;24.60;14.90;;;9.60;77.80;;;;;;5013841;28;20030;-76
2024/03/10 08:17:54;;;;;;;24.03;14.53;;;9.70;77.70;;;;;;5014172;28;20030;-77
2024/03/10 08:20:20;;;;;;;22.53;13.57;;;9.80;77.50;;;;;;5013953;28;20490;-77
2024/03/10 08:22:45;;;;;;;22.37;14.37;;;9.80;77.40;;;;;;5013459;28;20029;-77
2024/03/10 08:25:12;;;;;;;24.50;14.77;;;9.90;77.30;;;;;;5013768;28;20056;-77
2024/03/10 08:27:38;;;;;;;21.27;14.57;;;9.90;77.10;;;;;;5013884;28;20026;-77
2024/03/10 08:30:08;;;;;;;23.23;14.33;;;10.00;76.90;;;;;;5013995;28;20037;-76
2024/03/10 08:32:34;;;;;;;23.17;14.13;;;10.00;76.80;;;;;;5013210;28;20041;-77
2024/03/10 08:35:00;;;;;;;25.30;14.63;;;10.10;76.70;;;;;;5012273;28;20429;-77
2024/03/10 08:37:28;;;;;;;23.97;14.50;;;10.20;76.60;;;;;;5012108;28;20037;-76
2024/03/10 08:39:54;;;;;;;22.77;14.13;;;10.20;76.40;;;;;;5013326;28;20022;-77
2024/03/10 08:42:24;;;;;;;22.80;14.67;;;10.30;76.30;;;;;;5013424;28;20084;-77
2024/03/10 08:44:53;;;;;;;22.70;14.63;;;10.30;76.20;;;;;;5013311;28;20366;-77
2024/03/10 08:47:19;;;;;;;22.57;14.80;;;10.30;75.90;;;;;;5028585;28;20022;-77
2024/03/10 08:49:44;;;;;;;20.43;12.93;;;10.30;75.70;;;;;;5013351;28;20037;-78
2024/03/10 08:52:12;;;;;;;22.70;13.43;;;10.40;75.80;;;;;;5013255;28;20034;-77
2024/03/10 08:54:38;;;;;;;21.98;13.85;;;10.50;75.80;;;;;;5013227;28;20026;-77
2024/03/10 08:57:09;;;;;;;22.77;14.50;;;10.60;75.70;;;;;;5013488;28;20034;-77
2024/03/10 08:59:34;;;;;;;21.30;13.88;;;10.70;75.50;;;;;;5013372;28;20037;-77
2024/03/10 09:02:01;;;;;;;22.13;13.93;;;10.80;75.50;;;;;;5013499;28;20025;-78
2024/03/10 09:04:27;;;;;;;22.55;14.05;;;10.90;75.20;;;;;;5011957;28;20477;-77
2024/03/10 09:06:54;;;;;;;21.35;14.73;;;11.00;75.30;;;;;;5012891;28;20034;-75
2024/03/10 09:09:22;;;;;;;22.67;13.65;;;11.10;74.90;;;;;;5013242;28;20033;-75
2024/03/10 09:11:49;;;;;;;21.92;13.60;;;11.10;74.50;;;;;;5012985;28;20042;-76
2024/03/10 09:14:15;;;;;;;20.95;13.20;;;11.20;74.50;;;;;;5013019;28;20460;-76
2024/03/10 09:16:43;;;;;;;21.45;13.85;;;11.30;74.30;;;;;;5013119;28;20032;-75
2024/03/10 09:19:09;;;;;;;21.33;13.82;;;11.40;74.00;;;;;;5012795;28;20097;-76
2024/03/10 09:21:36;;;;;;;23.13;15.02;;;11.50;74.00;;;;;;5028577;28;20068;-76
2024/03/10 09:24:02;;;;;;;22.23;14.68;;;11.60;73.80;;;;;;5013106;28;20038;-76
2024/03/10 09:26:28;;;;;;;20.63;12.55;;;11.60;73.40;;;;;;5013003;28;20034;-76
2024/03/10 09:28:57;;;;;;;21.98;14.23;;;11.70;73.20;;;;;;5013023;28;20053;-76
2024/03/10 09:31:24;;;;;;;21.48;13.32;;;11.70;73.10;;;;;;5012468;28;20477;-75
2024/03/10 09:33:53;;;;;;;21.83;13.95;;;11.80;73.00;;;;;;5012837;28;20048;-76
2024/03/10 09:36:19;;;;;;;20.92;14.20;;;11.90;73.30;;;;;;5013073;28;20029;-77
2024/03/10 09:38:45;;;;;;;21.35;13.93;;;12.00;72.60;;;;;;5011591;28;20037;-77
2024/03/10 09:41:15;;;;;;;19.20;12.27;;;12.10;72.50;;;;;;5012428;28;20025;-76
2024/03/10 09:43:41;;;;;;;18.08;11.93;;;12.20;72.40;;;;;;5012810;28;20034;-76
2024/03/10 09:46:13;;;;;;;19.73;12.70;;;12.30;72.10;;;;;;5011351;28;20081;-76
2024/03/10 09:48:42;;;;;;;23.85;13.90;;;12.40;71.90;;;;;;5012739;28;20045;-76
2024/03/10 09:51:13;;;;;;;21.75;13.75;;;12.50;71.50;;;;;;5010995;28;20057;-76
2024/03/10 09:53:43;;;;;;;18.23;12.52;;;12.60;71.50;;;;;;4997895;28;20037;-76
2024/03/10 09:56:12;;;;;;;19.27;12.77;;;12.70;71.30;;;;;;4992389;28;20026;-76
2024/03/10 09:58:53;;;;;;;24.70;14.55;;;12.80;71.10;;;;;;4992896;28;20162;-76
2024/03/10 10:01:20;;;;;;;22.55;13.77;;;12.90;70.90;;;;;;4991745;28;20030;-75
2024/03/10 10:03:52;;;;;;;20.55;13.45;;;12.90;70.40;;;;;;4992625;28;20121;-75
2024/03/10 10:06:20;;;;;;;20.80;13.43;;;13.10;70.50;;;;;;4993114;28;20089;-76
2024/03/10 10:08:53;;;;;;;19.25;13.27;;;13.30;70.40;;;;;;4993048;28;20027;-76
2024/03/10 10:11:19;;;;;;;21.23;13.75;;;13.40;70.00;;;;;;4993240;28;20030;-76
2024/03/10 10:14:05;;;;;;;20.38;13.32;;;13.60;69.80;;;;;;4993121;28;20026;-76
2024/03/10 10:16:32;;;;;;;19.63;12.60;;;13.80;69.50;;;;;;4992799;28;20392;-76
2024/03/10 10:18:59;;;;;;;18.55;12.80;;;13.90;69.20;;;;;;4992743;28;20046;-75
2024/03/10 10:21:27;;;;;;;19.38;12.73;;;14.00;68.60;;;;;;4992626;28;20033;-76
2024/03/10 10:23:54;;;;;;;19.70;13.00;;;14.20;69.00;;;;;;4992807;28;20032;-76
2024/03/10 10:26:19;;;;;;;17.38;12.32;;;14.50;68.80;;;;;;4993393;28;20034;-77
2024/03/10 10:28:45;;;;;;;19.35;12.00;;;14.80;68.30;;;;;;4992717;28;20129;-76
2024/03/10 10:31:15;;;;;;;19.60;13.32;;;15.00;68.20;;;;;;4995075;28;20070;-76
2024/03/10 10:33:47;;;;;;;19.50;13.20;;;15.30;67.40;;;;;;4996059;28;20026;-77
2024/03/10 10:36:14;;;;;;;16.10;11.15;;;15.60;67.50;;;;;;4996299;28;20042;-77
2024/03/10 10:38:45;;;;;;;14.95;10.18;;;16.30;68.00;;;;;;4996370;28;20470;-77
2024/03/10 10:41:12;;;;;;;15.82;11.43;;;16.90;68.10;;;;;;4996450;28;20076;-77
2024/03/10 10:43:38;;;;;;;13.95;10.63;;;17.60;67.10;;;;;;4996078;28;20022;-77
2024/03/10 10:46:14;;;;;;;16.35;12.40;;;18.20;65.10;;;;;;4996237;28;20058;-77
2024/03/10 10:48:41;;;;;;;13.55;10.23;;;18.60;62.50;;;;;;4996074;28;20402;-76
2024/03/10 10:51:08;;;;;;;14.57;10.68;;;19.00;62.70;;;;;;4996907;28;20050;-76
2024/03/10 10:53:35;;;;;;;17.75;13.30;;;19.30;61.60;;;;;;4997720;28;20461;-77
2024/03/10 10:56:02;;;;;;;16.52;12.20;;;19.30;57.90;;;;;;4996217;28;20030;-76
2024/03/10 10:58:31;;;;;;;14.15;10.63;;;19.10;56.70;;;;;;4996065;28;20489;-77
2024/03/10 11:01:04;;;;;;;15.90;11.60;;;18.70;56.60;;;;;;5010858;28;20054;-77
2024/03/10 11:03:36;;;;;;;16.70;12.60;;;18.50;56.70;;;;;;4995618;28;20069;-77
2024/03/10 11:06:01;;;;;;;16.88;13.05;;;18.40;55.80;;;;;;4995533;28;20034;-78
2024/03/10 11:08:34;;;;;;;20.50;14.13;;;18.20;55.10;;;;;;4995958;28;20449;-76
2024/03/10 11:11:01;;;;;;;17.20;13.23;;;18.00;55.40;;;;;;4995605;28;20035;-77
2024/03/10 11:13:27;;;;;;;17.15;12.05;;;17.80;55.40;;;;;;5010759;28;20113;-77
2024/03/10 11:16:11;;;;;;;15.75;11.80;;;17.90;56.10;;;;;;5016039;28;20026;-77
2024/03/10 11:18:41;;;;;;;15.57;11.05;;;18.00;55.90;;;;;;5015067;28;20125;-78
2024/03/10 11:21:12;;;;;;;14.95;11.27;;;18.10;56.00;;;;;;5010234;28;20114;-76
2024/03/10 11:23:44;;;;;;;15.07;11.32;;;18.50;56.60;;;;;;4995486;28;20057;-77
2024/03/10 11:26:16;;;;;;;15.68;11.57;;;18.80;56.30;;;;;;4995702;28;20034;-77
2024/03/10 11:29:00;;;;;;;15.52;11.52;;;19.00;55.90;;;;;;4995401;28;20492;-77
2024/03/10 11:31:26;;;;;;;14.05;10.75;;;19.10;55.00;;;;;;4994866;28;20030;-77
2024/03/10 11:33:59;;;;;;;15.57;12.20;;;19.20;55.40;;;;;;4995281;28;20564;-77
2024/03/10 11:36:32;;;;;;;15.40;10.75;;;19.40;55.10;;;;;;4995239;28;20097;-76
2024/03/10 11:39:01;;;;;;;15.40;10.98;;;19.60;54.90;;;;;;4995308;28;20033;-77
2024/03/10 11:41:28;;;;;;;15.32;11.13;;;19.80;54.60;;;;;;4994798;28;20018;-78
2024/03/10 11:43:54;;;;;;;14.45;10.75;;;20.10;54.50;;;;;;4995040;28;20524;-78
2024/03/10 11:46:26;;;;;;;14.13;10.00;;;20.30;54.30;;;;;;4994916;28;20062;-77
2024/03/10 11:48:52;;;;;;;14.07;10.77;;;20.50;54.00;;;;;;4995060;28;20034;-77
2024/03/10 11:51:33;;;;;;;14.32;10.30;;;20.60;53.60;;;;;;5010010;28;20022;-77
2024/03/10 11:54:00;;;;;;;13.18;9.65;;;20.60;52.70;;;;;;4995037;28;20026;-77
2024/03/10 11:56:26;;;;;;;14.32;11.02;;;20.70;52.80;;;;;;4994723;28;20109;-78
2024/03/10 11:58:52;;;;;;;14.40;11.50;;;20.70;52.30;;;;;;4994800;28;20046;-77
2024/03/10 12:01:19;;;;;;;14.60;11.70;;;20.60;51.90;;;;;;4994687;28;20474;-77
2024/03/10 12:03:46;;;;;;;14.98;12.52;;;20.40;51.40;;;;;;4994654;28;20023;-77
2024/03/10 12:06:14;;;;;;;16.15;12.05;;;20.10;51.20;;;;;;5009515;28;20157;-77
2024/03/10 12:08:42;;;;;;;15.48;12.30;;;19.90;51.30;;;;;;4994631;28;20037;-77
2024/03/10 12:11:12;;;;;;;16.08;11.50;;;19.70;51.70;;;;;;4994693;28;20037;-77
2024/03/10 12:13:47;;;;;;;18.77;12.48;;;19.70;52.10;;;;;;4993081;28;20022;-76
2024/03/10 12:16:13;;;;;;;18.15;13.35;;;19.90;52.10;;;;;;4993147;28;20492;-77
2024/03/10 12:18:41;;;;;;;14.52;11.55;;;19.90;51.90;;;;;;4992783;28;20038;-76
2024/03/10 12:21:14;;;;;;;14.40;11.23;;;19.90;51.90;;;;;;4994048;28;20493;-77
2024/03/10 12:23:44;;;;;;;15.73;12.30;;;19.80;51.90;;;;;;4995146;28;20542;-76
2024/03/10 12:26:11;;;;;;;14.95;11.50;;;19.80;51.90;;;;;;5002623;28;20026;-77
2024/03/10 12:28:46;;;;;;;15.30;11.77;;;19.90;52.20;;;;;;5012678;28;20038;-77
2024/03/10 12:31:14;;;;;;;13.93;11.07;;;20.10;52.10;;;;;;5013354;28;20030;-76
2024/03/10 12:33:41;;;;;;;17.35;12.15;;;20.30;52.70;;;;;;5013615;28;20029;-76
2024/03/10 12:36:12;;;;;;;17.67;13.77;;;20.60;51.90;;;;;;5013814;28;20101;-77
2024/03/10 12:38:42;;;;;;;16.85;13.30;;;20.70;50.80;;;;;;5012660;28;20026;-76
2024/03/10 12:41:12;;;;;;;17.60;13.65;;;20.70;50.50;;;;;;5013603;28;20101;-77
2024/03/10 12:43:40;;;;;;;16.45;12.73;;;20.70;50.70;;;;;;5013892;28;20104;-77
2024/03/10 12:46:07;;;;;;;18.67;13.45;;;20.60;50.30;;;;;;5012473;28;20358;-77
2024/03/10 12:48:33;;;;;;;16.70;13.55;;;20.60;50.50;;;;;;5028500;28;20104;-77
2024/03/10 12:50:58;;;;;;;18.45;13.48;;;20.60;50.50;;;;;;5013420;28;20104;-77
2024/03/10 12:53:25;;;;;;;17.38;14.32;;;20.50;50.60;;;;;;5013016;28;20392;-77